sensor_id;sensor_type;location;lat;lon;timestamp;P1;durP1;ratioP1;P2;durP2;ratioP2
55170;SDS011;41060;47.510;8.680;2024-01-15T00:01:23;13.85;;;6.13;;
55170;SDS011;41060;47.510;8.680;2024-01-15T00:03:49;16.98;;;5.90;;
55170;SDS011;41060;47.510;8.680;2024-01-15T00:06:16;11.00;;;5.22;;
55170;SDS011;41060;47.510;8.680;2024-01-15T00:08:43;13.82;;;4.88;;
55170;SDS011;41060;47.510;8.680;2024-01-15T00:11:10;13.43;;;6.43;;
55170;SDS011;41060;47.510;8.680;2024-01-15T00:13:36;13.40;;;6.40;;
55170;SDS011;41060;47.510;8.680;2024-01-15T00:16:05;10.60;;;4.68;;
55170;SDS011;41060;47.510;8.680;2024-01-15T00:18:32;15.52;;;6.25;;
55170;SDS011;41060;47.510;8.680;2024-01-15T00:20:58;13.93;;;5.65;;
55170;SDS011;41060;47.510;8.680;2024-01-15T00:23:33;10.43;;;4.90;;
55170;SDS011;41060;47.510;8.680;2024-01-15T00:26:03;18.70;;;4.97;;
55170;SDS011;41060;47.510;8.680;2024-01-15T00:28:29;10.05;;;5.88;;
55170;SDS011;41060;47.510;8.680;2024-01-15T00:30:57;10.65;;;5.18;;
55170;SDS011;41060;47.510;8.680;2024-01-15T00:33:25;12.38;;;6.40;;
55170;SDS011;41060;47.510;8.680;2024-01-15T00:35:51;18.88;;;7.95;;
55170;SDS011;41060;47.510;8.680;2024-01-15T00:38:18;11.18;;;5.65;;
55170;SDS011;41060;47.510;8.680;2024-01-15T00:40:45;14.65;;;6.10;;
55170;SDS011;41060;47.510;8.680;2024-01-15T00:43:12;14.18;;;5.55;;
55170;SDS011;41060;47.510;8.680;2024-01-15T00:45:39;15.32;;;6.00;;
55170;SDS011;41060;47.510;8.680;2024-01-15T00:48:06;12.40;;;5.63;;
55170;SDS011;41060;47.510;8.680;2024-01-15T00:50:34;12.32;;;5.82;;
55170;SDS011;41060;47.510;8.680;2024-01-15T00:53:01;16.88;;;7.05;;
55170;SDS011;41060;47.510;8.680;2024-01-15T00:55:28;14.10;;;5.20;;
55170;SDS011;41060;47.510;8.680;2024-01-15T00:57:54;9.93;;;4.55;;
55170;SDS011;41060;47.510;8.680;2024-01-15T01:00:22;8.60;;;3.85;;
55170;SDS011;41060;47.510;8.680;2024-01-15T01:02:49;14.95;;;5.07;;
55170;SDS011;41060;47.510;8.680;2024-01-15T01:05:15;10.25;;;4.60;;
55170;SDS011;41060;47.510;8.680;2024-01-15T01:07:44;12.73;;;5.15;;
55170;SDS011;41060;47.510;8.680;2024-01-15T01:10:10;17.52;;;6.03;;
55170;SDS011;41060;47.510;8.680;2024-01-15T01:12:37;10.77;;;5.28;;
55170;SDS011;41060;47.510;8.680;2024-01-15T01:15:05;13.85;;;5.30;;
55170;SDS011;41060;47.510;8.680;2024-01-15T01:17:32;10.25;;;4.35;;
55170;SDS011;41060;47.510;8.680;2024-01-15T01:19:58;8.57;;;3.85;;
55170;SDS011;41060;47.510;8.680;2024-01-15T01:22:26;12.50;;;5.13;;
55170;SDS011;41060;47.510;8.680;2024-01-15T01:24:54;11.73;;;4.78;;
55170;SDS011;41060;47.510;8.680;2024-01-15T01:27:20;12.93;;;4.78;;
55170;SDS011;41060;47.510;8.680;2024-01-15T01:29:48;12.32;;;5.55;;
55170;SDS011;41060;47.510;8.680;2024-01-15T01:32:14;11.82;;;5.20;;
55170;SDS011;41060;47.510;8.680;2024-01-15T01:34:41;7.63;;;3.75;;
55170;SDS011;41060;47.510;8.680;2024-01-15T01:37:09;16.63;;;4.97;;
55170;SDS011;41060;47.510;8.680;2024-01-15T01:39:37;8.77;;;2.70;;
55170;SDS011;41060;47.510;8.680;2024-01-15T01:42:06;4.55;;;2.92;;
55170;SDS011;41060;47.510;8.680;2024-01-15T01:44:33;9.50;;;4.53;;
55170;SDS011;41060;47.510;8.680;2024-01-15T01:47:00;10.73;;;3.42;;
55170;SDS011;41060;47.510;8.680;2024-01-15T01:49:27;7.45;;;3.35;;
55170;SDS011;41060;47.510;8.680;2024-01-15T01:51:55;11.18;;;4.53;;
55170;SDS011;41060;47.510;8.680;2024-01-15T01:54:23;9.13;;;4.55;;
55170;SDS011;41060;47.510;8.680;2024-01-15T01:56:51;8.80;;;4.28;;
55170;SDS011;41060;47.510;8.680;2024-01-15T01:59:20;7.78;;;3.03;;
55170;SDS011;41060;47.510;8.680;2024-01-15T02:01:48;8.38;;;4.57;;
55170;SDS011;41060;47.510;8.680;2024-01-15T02:04:15;10.85;;;4.55;;
55170;SDS011;41060;47.510;8.680;2024-01-15T02:06:43;9.80;;;3.65;;
55170;SDS011;41060;47.510;8.680;2024-01-15T02:09:10;12.73;;;3.72;;
55170;SDS011;41060;47.510;8.680;2024-01-15T02:11:40;12.32;;;4.80;;
55170;SDS011;41060;47.510;8.680;2024-01-15T02:14:08;9.80;;;4.57;;
55170;SDS011;41060;47.510;8.680;2024-01-15T02:16:36;14.35;;;4.00;;
55170;SDS011;41060;47.510;8.680;2024-01-15T02:19:03;7.15;;;4.90;;
55170;SDS011;41060;47.510;8.680;2024-01-15T02:21:31;11.88;;;3.60;;
55170;SDS011;41060;47.510;8.680;2024-01-15T02:23:58;9.00;;;3.97;;
55170;SDS011;41060;47.510;8.680;2024-01-15T02:26:26;8.30;;;4.13;;
55170;SDS011;41060;47.510;8.680;2024-01-15T02:28:54;10.50;;;5.45;;
55170;SDS011;41060;47.510;8.680;2024-01-15T02:31:21;6.45;;;4.78;;
55170;SDS011;41060;47.510;8.680;2024-01-15T02:33:48;9.15;;;4.10;;
55170;SDS011;41060;47.510;8.680;2024-01-15T02:36:15;10.82;;;5.38;;
55170;SDS011;41060;47.510;8.680;2024-01-15T02:38:42;17.05;;;5.40;;
55170;SDS011;41060;47.510;8.680;2024-01-15T02:41:10;9.07;;;4.10;;
55170;SDS011;41060;47.510;8.680;2024-01-15T02:43:39;12.38;;;4.70;;
55170;SDS011;41060;47.510;8.680;2024-01-15T02:46:06;7.88;;;4.55;;
55170;SDS011;41060;47.510;8.680;2024-01-15T02:48:33;17.45;;;5.75;;
55170;SDS011;41060;47.510;8.680;2024-01-15T02:51:00;8.98;;;4.30;;
55170;SDS011;41060;47.510;8.680;2024-01-15T02:53:27;6.75;;;4.05;;
55170;SDS011;41060;47.510;8.680;2024-01-15T02:55:54;6.97;;;3.00;;
55170;SDS011;41060;47.510;8.680;2024-01-15T02:58:22;6.00;;;3.00;;
55170;SDS011;41060;47.510;8.680;2024-01-15T03:00:49;19.05;;;6.90;;
55170;SDS011;41060;47.510;8.680;2024-01-15T03:03:15;3.35;;;1.55;;
55170;SDS011;41060;47.510;8.680;2024-01-15T03:05:42;11.68;;;3.35;;
55170;SDS011;41060;47.510;8.680;2024-01-15T03:08:09;9.18;;;5.00;;
55170;SDS011;41060;47.510;8.680;2024-01-15T03:10:36;5.68;;;4.13;;
55170;SDS011;41060;47.510;8.680;2024-01-15T03:13:03;8.32;;;5.07;;
55170;SDS011;41060;47.510;8.680;2024-01-15T03:15:31;13.00;;;3.40;;
55170;SDS011;41060;47.510;8.680;2024-01-15T03:17:58;7.78;;;4.25;;
55170;SDS011;41060;47.510;8.680;2024-01-15T03:20:25;10.98;;;3.58;;
55170;SDS011;41060;47.510;8.680;2024-01-15T03:22:51;13.50;;;4.57;;
55170;SDS011;41060;47.510;8.680;2024-01-15T03:25:18;8.77;;;4.90;;
55170;SDS011;41060;47.510;8.680;2024-01-15T03:27:45;13.63;;;4.75;;
55170;SDS011;41060;47.510;8.680;2024-01-15T03:30:12;13.95;;;3.75;;
55170;SDS011;41060;47.510;8.680;2024-01-15T03:32:41;4.68;;;2.97;;
55170;SDS011;41060;47.510;8.680;2024-01-15T03:35:08;12.45;;;4.72;;
55170;SDS011;41060;47.510;8.680;2024-01-15T03:37:34;12.18;;;5.38;;
55170;SDS011;41060;47.510;8.680;2024-01-15T03:40:01;5.90;;;2.90;;
55170;SDS011;41060;47.510;8.680;2024-01-15T03:42:29;11.57;;;5.05;;
55170;SDS011;41060;47.510;8.680;2024-01-15T03:44:55;7.13;;;3.45;;
55170;SDS011;41060;47.510;8.680;2024-01-15T03:47:22;10.73;;;4.68;;
55170;SDS011;41060;47.510;8.680;2024-01-15T03:49:51;7.63;;;3.67;;
55170;SDS011;41060;47.510;8.680;2024-01-15T03:52:17;12.43;;;4.90;;
55170;SDS011;41060;47.510;8.680;2024-01-15T03:54:44;7.38;;;3.38;;
55170;SDS011;41060;47.510;8.680;2024-01-15T03:57:11;7.28;;;3.67;;
55170;SDS011;41060;47.510;8.680;2024-01-15T03:59:38;10.57;;;3.03;;
55170;SDS011;41060;47.510;8.680;2024-01-15T04:02:06;8.35;;;3.35;;
55170;SDS011;41060;47.510;8.680;2024-01-15T04:04:33;9.57;;;4.60;;
55170;SDS011;41060;47.510;8.680;2024-01-15T04:07:01;9.68;;;4.57;;
55170;SDS011;41060;47.510;8.680;2024-01-15T04:09:28;7.15;;;2.95;;
55170;SDS011;41060;47.510;8.680;2024-01-15T04:11:55;10.60;;;4.07;;
55170;SDS011;41060;47.510;8.680;2024-01-15T04:14:22;15.52;;;5.43;;
55170;SDS011;41060;47.510;8.680;2024-01-15T04:16:48;10.48;;;4.25;;
55170;SDS011;41060;47.510;8.680;2024-01-15T04:19:15;12.48;;;4.45;;
55170;SDS011;41060;47.510;8.680;2024-01-15T04:21:42;12.38;;;4.47;;
55170;SDS011;41060;47.510;8.680;2024-01-15T04:24:10;11.95;;;4.55;;
55170;SDS011;41060;47.510;8.680;2024-01-15T04:26:37;9.38;;;4.25;;
55170;SDS011;41060;47.510;8.680;2024-01-15T04:29:04;16.33;;;6.43;;
55170;SDS011;41060;47.510;8.680;2024-01-15T04:31:30;8.57;;;3.53;;
55170;SDS011;41060;47.510;8.680;2024-01-15T04:33:58;14.15;;;4.25;;
55170;SDS011;41060;47.510;8.680;2024-01-15T04:36:24;12.40;;;4.20;;
55170;SDS011;41060;47.510;8.680;2024-01-15T04:38:51;11.55;;;4.25;;
55170;SDS011;41060;47.510;8.680;2024-01-15T04:41:19;19.05;;;5.25;;
55170;SDS011;41060;47.510;8.680;2024-01-15T04:43:46;10.75;;;4.63;;
55170;SDS011;41060;47.510;8.680;2024-01-15T04:46:13;14.07;;;4.35;;
55170;SDS011;41060;47.510;8.680;2024-01-15T04:48:40;11.30;;;4.53;;
55170;SDS011;41060;47.510;8.680;2024-01-15T04:51:08;7.32;;;3.40;;
55170;SDS011;41060;47.510;8.680;2024-01-15T04:53:35;13.68;;;4.93;;
55170;SDS011;41060;47.510;8.680;2024-01-15T04:56:03;12.50;;;3.90;;
55170;SDS011;41060;47.510;8.680;2024-01-15T04:58:31;11.23;;;4.25;;
55170;SDS011;41060;47.510;8.680;2024-01-15T05:00:58;13.95;;;5.20;;
55170;SDS011;41060;47.510;8.680;2024-01-15T05:03:25;11.00;;;3.67;;
55170;SDS011;41060;47.510;8.680;2024-01-15T05:05:51;12.95;;;4.55;;
55170;SDS011;41060;47.510;8.680;2024-01-15T05:08:20;8.98;;;3.83;;
55170;SDS011;41060;47.510;8.680;2024-01-15T05:10:48;12.00;;;3.80;;
55170;SDS011;41060;47.510;8.680;2024-01-15T05:13:14;7.45;;;3.28;;
55170;SDS011;41060;47.510;8.680;2024-01-15T05:15:42;13.77;;;6.75;;
55170;SDS011;41060;47.510;8.680;2024-01-15T05:18:09;15.57;;;4.75;;
55170;SDS011;41060;47.510;8.680;2024-01-15T05:20:36;11.98;;;3.63;;
55170;SDS011;41060;47.510;8.680;2024-01-15T05:23:02;12.98;;;5.25;;
55170;SDS011;41060;47.510;8.680;2024-01-15T05:25:32;12.70;;;5.38;;
55170;SDS011;41060;47.510;8.680;2024-01-15T05:28:02;9.38;;;3.90;;
55170;SDS011;41060;47.510;8.680;2024-01-15T05:30:29;12.05;;;3.90;;
55170;SDS011;41060;47.510;8.680;2024-01-15T05:32:57;15.75;;;4.85;;
55170;SDS011;41060;47.510;8.680;2024-01-15T05:35:25;11.60;;;4.45;;
55170;SDS011;41060;47.510;8.680;2024-01-15T05:37:51;9.95;;;4.40;;
55170;SDS011;41060;47.510;8.680;2024-01-15T05:40:19;11.40;;;3.78;;
55170;SDS011;41060;47.510;8.680;2024-01-15T05:42:45;15.55;;;4.57;;
55170;SDS011;41060;47.510;8.680;2024-01-15T05:45:12;7.70;;;3.55;;
55170;SDS011;41060;47.510;8.680;2024-01-15T05:47:39;10.57;;;3.80;;
55170;SDS011;41060;47.510;8.680;2024-01-15T05:50:07;9.65;;;3.38;;
55170;SDS011;41060;47.510;8.680;2024-01-15T05:52:34;7.00;;;3.97;;
55170;SDS011;41060;47.510;8.680;2024-01-15T05:55:01;4.55;;;2.45;;
55170;SDS011;41060;47.510;8.680;2024-01-15T05:57:28;5.55;;;2.53;;
55170;SDS011;41060;47.510;8.680;2024-01-15T05:59:55;11.40;;;4.35;;
55170;SDS011;41060;47.510;8.680;2024-01-15T06:02:23;9.52;;;2.95;;
55170;SDS011;41060;47.510;8.680;2024-01-15T06:04:49;6.75;;;3.22;;
55170;SDS011;41060;47.510;8.680;2024-01-15T06:07:17;7.70;;;3.35;;
55170;SDS011;41060;47.510;8.680;2024-01-15T06:09:44;9.07;;;3.50;;
55170;SDS011;41060;47.510;8.680;2024-01-15T06:12:11;7.03;;;3.35;;
55170;SDS011;41060;47.510;8.680;2024-01-15T06:14:38;9.70;;;3.30;;
55170;SDS011;41060;47.510;8.680;2024-01-15T06:17:05;12.63;;;3.75;;
55170;SDS011;41060;47.510;8.680;2024-01-15T06:19:31;6.30;;;2.95;;
55170;SDS011;41060;47.510;8.680;2024-01-15T06:21:58;5.65;;;2.97;;
55170;SDS011;41060;47.510;8.680;2024-01-15T06:24:26;12.45;;;3.95;;
55170;SDS011;41060;47.510;8.680;2024-01-15T06:26:53;6.05;;;2.63;;
55170;SDS011;41060;47.510;8.680;2024-01-15T06:29:20;6.13;;;2.15;;
55170;SDS011;41060;47.510;8.680;2024-01-15T06:31:49;8.80;;;4.15;;
55170;SDS011;41060;47.510;8.680;2024-01-15T06:34:16;10.73;;;4.38;;
55170;SDS011;41060;47.510;8.680;2024-01-15T06:36:43;11.10;;;4.15;;
55170;SDS011;41060;47.510;8.680;2024-01-15T06:39:10;8.68;;;3.50;;
55170;SDS011;41060;47.510;8.680;2024-01-15T06:41:38;8.07;;;3.92;;
55170;SDS011;41060;47.510;8.680;2024-01-15T06:44:08;7.32;;;3.45;;
55170;SDS011;41060;47.510;8.680;2024-01-15T06:46:38;10.90;;;4.38;;
55170;SDS011;41060;47.510;8.680;2024-01-15T06:49:08;11.20;;;3.83;;
55170;SDS011;41060;47.510;8.680;2024-01-15T06:51:35;10.00;;;4.47;;
55170;SDS011;41060;47.510;8.680;2024-01-15T06:54:02;8.70;;;3.70;;
55170;SDS011;41060;47.510;8.680;2024-01-15T06:56:29;10.38;;;4.97;;
55170;SDS011;41060;47.510;8.680;2024-01-15T06:59:06;14.25;;;5.38;;
55170;SDS011;41060;47.510;8.680;2024-01-15T07:01:33;8.57;;;4.30;;
55170;SDS011;41060;47.510;8.680;2024-01-15T07:03:59;12.75;;;3.67;;
55170;SDS011;41060;47.510;8.680;2024-01-15T07:06:27;9.13;;;3.95;;
55170;SDS011;41060;47.510;8.680;2024-01-15T07:08:53;11.10;;;3.28;;
55170;SDS011;41060;47.510;8.680;2024-01-15T07:11:20;11.68;;;4.72;;
55170;SDS011;41060;47.510;8.680;2024-01-15T07:13:47;11.82;;;4.97;;
55170;SDS011;41060;47.510;8.680;2024-01-15T07:16:17;10.25;;;3.60;;
55170;SDS011;41060;47.510;8.680;2024-01-15T07:18:44;13.15;;;4.13;;
55170;SDS011;41060;47.510;8.680;2024-01-15T07:21:11;6.18;;;3.15;;
55170;SDS011;41060;47.510;8.680;2024-01-15T07:23:38;10.32;;;4.72;;
55170;SDS011;41060;47.510;8.680;2024-01-15T07:26:05;9.93;;;4.07;;
55170;SDS011;41060;47.510;8.680;2024-01-15T07:28:32;7.03;;;3.35;;
55170;SDS011;41060;47.510;8.680;2024-01-15T07:30:59;4.50;;;2.72;;
55170;SDS011;41060;47.510;8.680;2024-01-15T07:33:27;11.75;;;4.05;;
55170;SDS011;41060;47.510;8.680;2024-01-15T07:35:55;3.10;;;2.50;;
55170;SDS011;41060;47.510;8.680;2024-01-15T07:38:24;11.55;;;4.13;;
55170;SDS011;41060;47.510;8.680;2024-01-15T07:40:50;7.43;;;3.80;;
55170;SDS011;41060;47.510;8.680;2024-01-15T07:43:19;10.52;;;3.40;;
55170;SDS011;41060;47.510;8.680;2024-01-15T07:45:46;10.90;;;2.92;;
55170;SDS011;41060;47.510;8.680;2024-01-15T07:48:12;7.85;;;3.78;;
55170;SDS011;41060;47.510;8.680;2024-01-15T07:50:41;13.85;;;3.22;;
55170;SDS011;41060;47.510;8.680;2024-01-15T07:53:07;6.25;;;2.40;;
55170;SDS011;41060;47.510;8.680;2024-01-15T07:55:34;8.27;;;3.78;;
55170;SDS011;41060;47.510;8.680;2024-01-15T07:58:01;5.88;;;2.72;;
55170;SDS011;41060;47.510;8.680;2024-01-15T08:00:28;8.07;;;3.55;;
55170;SDS011;41060;47.510;8.680;2024-01-15T08:02:55;7.60;;;3.53;;
55170;SDS011;41060;47.510;8.680;2024-01-15T08:05:22;14.85;;;4.72;;
55170;SDS011;41060;47.510;8.680;2024-01-15T08:07:50;6.25;;;3.20;;
55170;SDS011;41060;47.510;8.680;2024-01-15T08:10:16;8.98;;;4.32;;
55170;SDS011;41060;47.510;8.680;2024-01-15T08:12:44;7.03;;;3.38;;
55170;SDS011;41060;47.510;8.680;2024-01-15T08:15:10;7.65;;;3.15;;
55170;SDS011;41060;47.510;8.680;2024-01-15T08:17:38;7.05;;;3.13;;
55170;SDS011;41060;47.510;8.680;2024-01-15T08:20:06;12.13;;;3.90;;
55170;SDS011;41060;47.510;8.680;2024-01-15T08:22:33;8.82;;;3.53;;
55170;SDS011;41060;47.510;8.680;2024-01-15T08:25:01;4.50;;;2.70;;
55170;SDS011;41060;47.510;8.680;2024-01-15T08:27:29;8.55;;;2.92;;
55170;SDS011;41060;47.510;8.680;2024-01-15T08:29:55;7.82;;;3.35;;
55170;SDS011;41060;47.510;8.680;2024-01-15T08:32:22;5.13;;;2.05;;
55170;SDS011;41060;47.510;8.680;2024-01-15T08:34:49;15.82;;;3.65;;
55170;SDS011;41060;47.510;8.680;2024-01-15T08:37:17;10.45;;;3.28;;
55170;SDS011;41060;47.510;8.680;2024-01-15T08:39:44;8.23;;;3.60;;
55170;SDS011;41060;47.510;8.680;2024-01-15T08:42:13;8.07;;;2.78;;
55170;SDS011;41060;47.510;8.680;2024-01-15T08:44:39;5.93;;;2.25;;
55170;SDS011;41060;47.510;8.680;2024-01-15T08:47:08;8.60;;;3.55;;
55170;SDS011;41060;47.510;8.680;2024-01-15T08:49:36;5.47;;;3.50;;
55170;SDS011;41060;47.510;8.680;2024-01-15T08:52:02;7.93;;;3.78;;
55170;SDS011;41060;47.510;8.680;2024-01-15T08:54:29;8.48;;;3.72;;
55170;SDS011;41060;47.510;8.680;2024-01-15T08:56:56;8.43;;;3.30;;
55170;SDS011;41060;47.510;8.680;2024-01-15T08:59:24;7.00;;;2.85;;
55170;SDS011;41060;47.510;8.680;2024-01-15T09:01:51;7.35;;;3.22;;
55170;SDS011;41060;47.510;8.680;2024-01-15T09:04:18;7.10;;;2.67;;
55170;SDS011;41060;47.510;8.680;2024-01-15T09:06:45;7.30;;;4.07;;
55170;SDS011;41060;47.510;8.680;2024-01-15T09:09:12;5.97;;;2.78;;
55170;SDS011;41060;47.510;8.680;2024-01-15T09:11:40;12.52;;;2.53;;
55170;SDS011;41060;47.510;8.680;2024-01-15T09:14:06;7.38;;;3.35;;
55170;SDS011;41060;47.510;8.680;2024-01-15T09:16:35;9.38;;;3.63;;
55170;SDS011;41060;47.510;8.680;2024-01-15T09:19:03;7.78;;;1.88;;
55170;SDS011;41060;47.510;8.680;2024-01-15T09:21:29;3.63;;;2.42;;
55170;SDS011;41060;47.510;8.680;2024-01-15T09:23:56;6.10;;;2.50;;
55170;SDS011;41060;47.510;8.680;2024-01-15T09:26:24;2.35;;;2.15;;
55170;SDS011;41060;47.510;8.680;2024-01-15T09:28:53;8.18;;;2.40;;
55170;SDS011;41060;47.510;8.680;2024-01-15T09:31:24;11.77;;;2.65;;
55170;SDS011;41060;47.510;8.680;2024-01-15T09:33:52;9.15;;;3.22;;
55170;SDS011;41060;47.510;8.680;2024-01-15T09:36:21;2.90;;;1.95;;
55170;SDS011;41060;47.510;8.680;2024-01-15T09:38:48;6.18;;;2.28;;
55170;SDS011;41060;47.510;8.680;2024-01-15T09:41:15;5.30;;;1.38;;
55170;SDS011;41060;47.510;8.680;2024-01-15T09:43:44;8.43;;;2.20;;
55170;SDS011;41060;47.510;8.680;2024-01-15T09:46:12;3.25;;;1.35;;
55170;SDS011;41060;47.510;8.680;2024-01-15T09:48:43;3.40;;;2.38;;
55170;SDS011;41060;47.510;8.680;2024-01-15T09:51:11;3.55;;;2.25;;
55170;SDS011;41060;47.510;8.680;2024-01-15T09:53:38;7.70;;;2.10;;
55170;SDS011;41060;47.510;8.680;2024-01-15T09:56:07;4.38;;;1.70;;
55170;SDS011;41060;47.510;8.680;2024-01-15T09:58:34;2.90;;;1.98;;
55170;SDS011;41060;47.510;8.680;2024-01-15T10:01:02;3.45;;;1.63;;
55170;SDS011;41060;47.510;8.680;2024-01-15T10:03:29;7.00;;;3.17;;
55170;SDS011;41060;47.510;8.680;2024-01-15T10:05:56;7.47;;;2.70;;
55170;SDS011;41060;47.510;8.680;2024-01-15T10:08:27;9.20;;;2.42;;
55170;SDS011;41060;47.510;8.680;2024-01-15T10:10:54;6.88;;;3.72;;
55170;SDS011;41060;47.510;8.680;2024-01-15T10:13:21;8.80;;;3.67;;
55170;SDS011;41060;47.510;8.680;2024-01-15T10:15:49;5.90;;;2.47;;
55170;SDS011;41060;47.510;8.680;2024-01-15T10:18:15;6.28;;;2.30;;
55170;SDS011;41060;47.510;8.680;2024-01-15T10:20:42;6.60;;;3.08;;
55170;SDS011;41060;47.510;8.680;2024-01-15T10:23:09;7.18;;;2.35;;
55170;SDS011;41060;47.510;8.680;2024-01-15T10:25:37;6.75;;;2.40;;
55170;SDS011;41060;47.510;8.680;2024-01-15T10:28:04;5.82;;;3.45;;
55170;SDS011;41060;47.510;8.680;2024-01-15T10:30:32;10.30;;;2.42;;
55170;SDS011;41060;47.510;8.680;2024-01-15T10:32:59;6.68;;;3.20;;
55170;SDS011;41060;47.510;8.680;2024-01-15T10:35:27;6.55;;;2.13;;
55170;SDS011;41060;47.510;8.680;2024-01-15T10:37:54;6.60;;;2.22;;
55170;SDS011;41060;47.510;8.680;2024-01-15T10:40:21;4.50;;;2.47;;
55170;SDS011;41060;47.510;8.680;2024-01-15T10:42:49;5.50;;;2.42;;
55170;SDS011;41060;47.510;8.680;2024-01-15T10:45:17;3.95;;;2.55;;
55170;SDS011;41060;47.510;8.680;2024-01-15T10:47:44;6.53;;;2.53;;
55170;SDS011;41060;47.510;8.680;2024-01-15T10:50:11;2.67;;;2.25;;
55170;SDS011;41060;47.510;8.680;2024-01-15T10:52:39;2.97;;;1.58;;
55170;SDS011;41060;47.510;8.680;2024-01-15T10:55:07;4.05;;;1.40;;
55170;SDS011;41060;47.510;8.680;2024-01-15T10:57:35;3.58;;;1.73;;
55170;SDS011;41060;47.510;8.680;2024-01-15T11:00:05;4.88;;;2.47;;
55170;SDS011;41060;47.510;8.680;2024-01-15T11:02:34;4.45;;;2.35;;
55170;SDS011;41060;47.510;8.680;2024-01-15T11:05:03;4.20;;;1.77;;
55170;SDS011;41060;47.510;8.680;2024-01-15T11:07:30;6.47;;;1.85;;
55170;SDS011;41060;47.510;8.680;2024-01-15T11:09:57;7.10;;;2.38;;
55170;SDS011;41060;47.510;8.680;2024-01-15T11:12:24;6.57;;;1.80;;
55170;SDS011;41060;47.510;8.680;2024-01-15T11:14:51;6.63;;;2.85;;
55170;SDS011;41060;47.510;8.680;2024-01-15T11:17:21;4.43;;;2.10;;
55170;SDS011;41060;47.510;8.680;2024-01-15T11:19:48;4.00;;;1.98;;
55170;SDS011;41060;47.510;8.680;2024-01-15T11:25:14;4.70;;;1.95;;
55170;SDS011;41060;47.510;8.680;2024-01-15T11:27:46;5.82;;;2.38;;
55170;SDS011;41060;47.510;8.680;2024-01-15T11:30:16;4.40;;;1.60;;
55170;SDS011;41060;47.510;8.680;2024-01-15T11:32:52;3.47;;;1.50;;
55170;SDS011;41060;47.510;8.680;2024-01-15T11:35:20;5.68;;;1.92;;
55170;SDS011;41060;47.510;8.680;2024-01-15T11:37:58;4.43;;;1.65;;
55170;SDS011;41060;47.510;8.680;2024-01-15T11:40:36;2.95;;;1.55;;
55170;SDS011;41060;47.510;8.680;2024-01-15T11:43:04;4.57;;;2.35;;
55170;SDS011;41060;47.510;8.680;2024-01-15T11:45:32;3.20;;;1.60;;
55170;SDS011;41060;47.510;8.680;2024-01-15T11:48:11;3.63;;;1.55;;
55170;SDS011;41060;47.510;8.680;2024-01-15T11:50:40;4.10;;;1.38;;
55170;SDS011;41060;47.510;8.680;2024-01-15T11:53:16;2.17;;;1.30;;
55170;SDS011;41060;47.510;8.680;2024-01-15T11:55:45;2.78;;;1.40;;
55170;SDS011;41060;47.510;8.680;2024-01-15T11:58:13;2.17;;;1.42;;
55170;SDS011;41060;47.510;8.680;2024-01-15T12:00:42;2.08;;;1.40;;
55170;SDS011;41060;47.510;8.680;2024-01-15T12:03:21;5.13;;;1.70;;
55170;SDS011;41060;47.510;8.680;2024-01-15T12:05:48;7.85;;;2.25;;
55170;SDS011;41060;47.510;8.680;2024-01-15T12:08:14;3.97;;;1.33;;
55170;SDS011;41060;47.510;8.680;2024-01-15T12:10:47;4.40;;;1.50;;
55170;SDS011;41060;47.510;8.680;2024-01-15T12:13:14;9.30;;;1.98;;
55170;SDS011;41060;47.510;8.680;2024-01-15T12:15:44;3.25;;;2.63;;
55170;SDS011;41060;47.510;8.680;2024-01-15T12:18:13;3.05;;;1.95;;
55170;SDS011;41060;47.510;8.680;2024-01-15T12:20:42;2.83;;;1.63;;
55170;SDS011;41060;47.510;8.680;2024-01-15T12:23:12;3.03;;;2.25;;
55170;SDS011;41060;47.510;8.680;2024-01-15T12:25:40;4.78;;;2.05;;
55170;SDS011;41060;47.510;8.680;2024-01-15T12:28:10;3.50;;;1.58;;
55170;SDS011;41060;47.510;8.680;2024-01-15T12:30:36;3.85;;;1.52;;
55170;SDS011;41060;47.510;8.680;2024-01-15T12:33:04;3.33;;;2.03;;
55170;SDS011;41060;47.510;8.680;2024-01-15T12:35:31;3.78;;;2.38;;
55170;SDS011;41060;47.510;8.680;2024-01-15T12:38:01;4.50;;;1.50;;
55170;SDS011;41060;47.510;8.680;2024-01-15T12:40:30;1.92;;;1.25;;
55170;SDS011;41060;47.510;8.680;2024-01-15T12:42:56;3.63;;;2.00;;
55170;SDS011;41060;47.510;8.680;2024-01-15T12:45:23;5.45;;;1.80;;
55170;SDS011;41060;47.510;8.680;2024-01-15T12:47:50;5.28;;;2.40;;
55170;SDS011;41060;47.510;8.680;2024-01-15T12:50:17;3.50;;;1.85;;
55170;SDS011;41060;47.510;8.680;2024-01-15T12:52:44;20.05;;;2.78;;
55170;SDS011;41060;47.510;8.680;2024-01-15T12:55:13;4.30;;;2.10;;
55170;SDS011;41060;47.510;8.680;2024-01-15T12:57:40;4.60;;;1.50;;
55170;SDS011;41060;47.510;8.680;2024-01-15T13:00:07;3.15;;;2.13;;
55170;SDS011;41060;47.510;8.680;2024-01-15T13:02:41;3.72;;;1.83;;
55170;SDS011;41060;47.510;8.680;2024-01-15T13:05:10;3.92;;;1.52;;
55170;SDS011;41060;47.510;8.680;2024-01-15T13:07:37;4.60;;;1.73;;
55170;SDS011;41060;47.510;8.680;2024-01-15T13:10:05;3.20;;;1.58;;
55170;SDS011;41060;47.510;8.680;2024-01-15T13:12:35;4.80;;;2.05;;
55170;SDS011;41060;47.510;8.680;2024-01-15T13:15:03;2.85;;;1.92;;
55170;SDS011;41060;47.510;8.680;2024-01-15T13:17:37;2.60;;;1.85;;
55170;SDS011;41060;47.510;8.680;2024-01-15T13:20:05;7.65;;;1.98;;
55170;SDS011;41060;47.510;8.680;2024-01-15T13:22:36;3.85;;;1.52;;
55170;SDS011;41060;47.510;8.680;2024-01-15T13:25:08;3.63;;;2.17;;
55170;SDS011;41060;47.510;8.680;2024-01-15T13:27:38;4.93;;;2.03;;
55170;SDS011;41060;47.510;8.680;2024-01-15T13:30:05;4.43;;;1.60;;
55170;SDS011;41060;47.510;8.680;2024-01-15T13:32:33;6.25;;;2.05;;
55170;SDS011;41060;47.510;8.680;2024-01-15T13:35:01;2.92;;;1.58;;
55170;SDS011;41060;47.510;8.680;2024-01-15T13:37:30;3.33;;;1.52;;
55170;SDS011;41060;47.510;8.680;2024-01-15T13:39:57;3.42;;;2.85;;
55170;SDS011;41060;47.510;8.680;2024-01-15T13:42:24;5.45;;;2.40;;
55170;SDS011;41060;47.510;8.680;2024-01-15T13:44:53;2.97;;;1.60;;
55170;SDS011;41060;47.510;8.680;2024-01-15T13:47:22;3.97;;;1.83;;
55170;SDS011;41060;47.510;8.680;2024-01-15T13:49:49;7.28;;;2.63;;
55170;SDS011;41060;47.510;8.680;2024-01-15T13:52:16;5.60;;;1.88;;
55170;SDS011;41060;47.510;8.680;2024-01-15T13:54:43;12.02;;;3.20;;
55170;SDS011;41060;47.510;8.680;2024-01-15T13:57:10;9.02;;;3.28;;
55170;SDS011;41060;47.510;8.680;2024-01-15T13:59:37;9.45;;;4.35;;
55170;SDS011;41060;47.510;8.680;2024-01-15T14:02:05;9.32;;;4.20;;
55170;SDS011;41060;47.510;8.680;2024-01-15T14:04:32;9.80;;;3.90;;
55170;SDS011;41060;47.510;8.680;2024-01-15T14:06:58;8.48;;;3.88;;
55170;SDS011;41060;47.510;8.680;2024-01-15T14:09:25;7.95;;;4.30;;
55170;SDS011;41060;47.510;8.680;2024-01-15T14:11:52;7.10;;;3.65;;
55170;SDS011;41060;47.510;8.680;2024-01-15T14:14:19;7.18;;;4.25;;
55170;SDS011;41060;47.510;8.680;2024-01-15T14:16:46;7.80;;;3.70;;
55170;SDS011;41060;47.510;8.680;2024-01-15T14:19:15;11.27;;;5.05;;
55170;SDS011;41060;47.510;8.680;2024-01-15T14:21:41;9.57;;;4.05;;
55170;SDS011;41060;47.510;8.680;2024-01-15T14:24:08;10.27;;;4.75;;
55170;SDS011;41060;47.510;8.680;2024-01-15T14:26:35;11.80;;;4.25;;
55170;SDS011;41060;47.510;8.680;2024-01-15T14:29:01;9.65;;;4.50;;
55170;SDS011;41060;47.510;8.680;2024-01-15T14:31:34;11.82;;;5.15;;
55170;SDS011;41060;47.510;8.680;2024-01-15T14:34:01;10.73;;;4.23;;
55170;SDS011;41060;47.510;8.680;2024-01-15T14:36:30;12.60;;;4.60;;
55170;SDS011;41060;47.510;8.680;2024-01-15T14:38:56;8.23;;;4.63;;
55170;SDS011;41060;47.510;8.680;2024-01-15T14:41:23;11.27;;;5.47;;
55170;SDS011;41060;47.510;8.680;2024-01-15T14:43:53;7.07;;;3.85;;
55170;SDS011;41060;47.510;8.680;2024-01-15T14:46:20;10.35;;;4.50;;
55170;SDS011;41060;47.510;8.680;2024-01-15T14:48:47;12.90;;;5.25;;